createdAt,value
2017-09-15T04:18:34.349Z,88.06
2017-09-15T04:23:23.949Z,87.49
2017-09-15T04:24:26.861Z,87.15
2017-09-15T04:24:52.292Z,87.16
2017-09-15T04:25:14.141Z,87.30
2017-09-15T04:26:07.012Z,87.43
2017-09-15T04:26:21.567Z,87.12
2017-09-15T04:26:48.410Z,86.86
2017-09-15T04:27:05.241Z,86.98
2017-09-15T04:27:36.490Z,87.08
2017-09-15T04:27:59.281Z,86.80
2017-09-15T04:28:16.996Z,87.05
2017-09-15T04:28:46.621Z,88.40
2017-09-15T04:29:23.087Z,87.34
2017-09-15T04:30:04.749Z,87.66
2017-09-15T04:30:51.886Z,87.66
2017-09-15T04:31:09.949Z,87.96
2017-09-15T04:31:27.775Z,87.49
2017-09-15T04:31:49.085Z,87.85
2017-09-15T04:32:07.883Z,87.43
2017-09-15T04:32:15.902Z,87.97
2017-09-15T04:32:32.771Z,87.89
2017-09-15T04:32:41.567Z,87.82
2017-09-15T04:32:49.360Z,87.71
2017-09-15T04:33:22.129Z,87.77
2017-09-15T04:33:30.649Z,87.54
2017-09-15T04:33:45.232Z,87.63
2017-09-15T04:34:00.519Z,87.86
2017-09-15T04:34:26.529Z,87.60
2017-09-15T04:34:54.269Z,87.76
2017-09-15T04:35:02.054Z,87.58
2017-09-15T04:35:19.921Z,87.20
2017-09-15T04:35:54.504Z,87.81
2017-09-15T04:36:12.466Z,87.91
2017-09-15T04:36:46.425Z,87.68
2017-09-15T04:37:03.382Z,87.11
2017-09-15T04:37:18.109Z,87.38
2017-09-15T04:37:44.014Z,87.44
2017-09-15T04:38:08.596Z,87.65
2017-09-15T04:38:17.124Z,87.64
2017-09-15T08:13:20.778Z,85.47
2017-09-15T08:23:00.279Z,84.08
2017-09-15T08:59:00.403Z,82.29
2017-09-15T08:59:25.437Z,82.16
2017-09-15T09:01:26.720Z,82.96
2017-09-15T09:03:53.120Z,82.54
2017-09-15T09:08:29.138Z,82.52
2017-09-15T09:11:51.847Z,81.11
2017-09-15T09:13:38.894Z,81.68
2017-09-15T09:14:13.961Z,80.43
2017-09-15T09:14:42.642Z,81.18
2017-09-15T09:15:30.296Z,81.52
2017-09-15T09:16:16.362Z,81.17
2017-09-15T09:18:51.759Z,80.64
2017-09-15T09:20:40.323Z,80.76
2017-09-15T09:23:38.519Z,80.63
2017-09-15T09:24:09.077Z,80.72
2017-09-15T09:24:29.626Z,80.52
2017-09-15T09:25:22.202Z,80.37
2017-09-15T09:26:18.877Z,80.52
2017-09-15T09:26:38.568Z,80.25
2017-09-15T09:27:05.262Z,80.32
2017-09-15T09:28:47.014Z,79.17
2017-09-15T09:29:53.027Z,79.75
2017-09-15T09:31:02.155Z,79.53
2017-09-15T09:31:38.662Z,79.52
2017-09-15T09:34:16.439Z,78.89
2017-09-15T09:34:41.144Z,78.95
2017-09-15T09:35:01.322Z,79.07
2017-09-15T09:35:22.480Z,79.48
2017-09-15T09:36:09.495Z,78.85
2017-09-15T09:36:30.624Z,78.96
2017-09-15T09:36:49.587Z,79.05
2017-09-15T09:37:57.602Z,79.10
2017-09-15T09:39:12.203Z,78.94
2017-09-15T09:39:38.618Z,77.97
2017-09-15T09:39:50.606Z,78.14
2017-09-15T09:40:14.246Z,78.08
2017-09-15T09:40:36.268Z,78.30
2017-09-15T09:40:46.221Z,78.48
2017-09-15T09:41:02.338Z,78.55
2017-09-15T09:41:34.998Z,78.59
2017-09-15T09:41:50.347Z,78.30
2017-09-15T09:42:05.674Z,78.17
2017-09-15T09:42:22.987Z,78.11
2017-09-15T09:43:19.920Z,77.85
2017-09-15T09:44:17.596Z,77.66
2017-09-15T09:44:50.198Z,77.37
2017-09-15T09:45:31.332Z,77.40
2017-09-15T09:46:21.590Z,77.27
2017-09-15T09:48:04.758Z,77.15
2017-09-15T09:48:41.102Z,77.01
2017-09-15T09:48:54.599Z,77.17
2017-09-15T09:50:06.787Z,77.09
2017-09-15T09:50:25.806Z,76.76
2017-09-15T09:50:49.571Z,76.43
2017-09-15T09:51:07.082Z,76.49
2017-09-15T09:51:58.688Z,76.59
2017-09-15T09:52:57.924Z,77.02
2017-09-15T09:53:22.144Z,77.10
2017-09-15T09:54:28.155Z,76.57
2017-09-15T09:54:51.736Z,77.07
2017-09-15T09:55:18.343Z,77.11
2017-09-15T09:55:47.435Z,77.31
2017-09-15T09:56:33.778Z,77.19
2017-09-15T09:56:43.239Z,77.39
2017-09-15T09:57:00.274Z,77.25
2017-09-15T09:57:15.685Z,77.45
2017-09-15T09:57:32.232Z,77.65
2017-09-15T09:57:51.975Z,77.77
2017-09-15T09:58:09.907Z,77.71
2017-09-15T09:58:41.595Z,77.61
2017-09-15T09:59:07.940Z,77.59
2017-09-15T10:00:16.469Z,77.50
2017-09-15T10:01:06.778Z,77.45
2017-09-15T10:02:12.006Z,76.85
2017-09-15T10:02:41.107Z,76.53
2017-09-15T10:02:50.357Z,76.42
2017-09-15T10:03:12.771Z,76.52
2017-09-15T10:03:32.807Z,76.62
2017-09-15T10:04:06.030Z,76.44
2017-09-15T10:04:45.395Z,76.65
2017-09-15T10:04:56.258Z,76.95
2017-09-15T10:05:06.438Z,76.53
2017-09-15T10:05:19.934Z,76.22
2017-09-15T10:05:31.631Z,76.92
2017-09-15T10:05:52.724Z,76.53
2017-09-15T10:06:03.387Z,76.40
2017-09-15T10:06:15.165Z,76.62
2017-09-15T10:06:40.335Z,76.16
2017-09-15T10:07:11.546Z,76.11
2017-09-15T10:07:30.616Z,76.21
2017-09-15T10:08:00.321Z,76.30
2017-09-15T10:08:10.714Z,76.29
2017-09-15T10:08:30.327Z,76.24
2017-09-15T10:08:39.411Z,76.14
2017-09-15T10:09:00.702Z,76.24
2017-09-15T10:09:59.082Z,75.50
2017-09-15T10:11:14.550Z,75.29
2017-09-15T10:12:12.790Z,75.69
2017-09-15T10:13:08.823Z,75.65
2017-09-15T10:14:35.719Z,75.26
2017-09-15T10:16:15.308Z,75.73
2017-09-15T10:16:23.817Z,75.79
2017-09-15T10:16:41.631Z,75.67
2017-09-15T10:17:16.945Z,75.18
2017-09-15T10:17:47.117Z,75.10
2017-09-15T10:17:55.526Z,74.95
2017-09-15T10:18:04.974Z,75.10
2017-09-15T10:18:13.194Z,75.10
2017-09-15T10:18:21.345Z,75.21
2017-09-15T10:18:29.332Z,75.06
2017-09-15T10:18:44.227Z,75.30
2017-09-15T10:18:53.319Z,75.28
2017-09-15T10:19:01.145Z,75.65
2017-09-15T10:19:09.266Z,75.84
2017-09-15T10:19:25.407Z,75.57
2017-09-15T10:19:44.749Z,75.67
2017-09-15T10:20:49.057Z,76.07
2017-09-15T10:21:05.102Z,76.14
2017-09-15T10:22:12.765Z,76.15
2017-09-15T10:22:24.667Z,75.72
2017-09-15T10:22:32.720Z,75.56
2017-09-15T10:23:20.101Z,75.54
2017-09-15T10:23:28.430Z,75.54
2017-09-15T10:23:45.132Z,75.73
2017-09-15T10:23:53.913Z,75.91
2017-09-15T10:24:01.853Z,75.88
2017-09-15T10:24:10.001Z,75.88
2017-09-15T10:24:18.146Z,75.83
2017-09-15T10:24:33.022Z,75.83
2017-09-15T10:24:41.874Z,75.92
2017-09-15T10:24:54.793Z,75.92
2017-09-15T10:25:03.009Z,75.87
2017-09-15T10:25:21.618Z,75.59
2017-09-15T10:25:30.409Z,76.04
2017-09-15T10:25:57.307Z,76.00
2017-09-15T10:26:16.930Z,75.79
2017-09-15T10:26:53.189Z,75.57
2017-09-15T10:27:00.422Z,75.39
2017-09-15T10:27:15.855Z,75.23
2017-09-15T10:27:24.274Z,75.42
2017-09-15T10:27:32.269Z,75.38
2017-09-15T10:27:40.406Z,75.53
2017-09-15T10:28:05.274Z,75.52
2017-09-15T10:28:24.350Z,75.79
2017-09-15T10:28:32.477Z,75.83
2017-09-15T10:28:40.609Z,75.77
2017-09-15T10:28:48.749Z,76.05
2017-09-15T10:28:56.888Z,76.19
2017-09-15T10:29:27.430Z,76.01
2017-09-15T10:29:46.801Z,76.09
2017-09-15T10:30:02.662Z,75.97
2017-09-15T10:30:09.890Z,75.88
2017-09-15T10:30:18.030Z,75.64
2017-09-15T10:30:30.959Z,75.45
2017-09-15T10:30:39.118Z,75.85
2017-09-15T10:30:47.242Z,76.01
2017-09-15T10:30:55.377Z,75.76
2017-09-15T10:31:03.549Z,75.21
2017-09-15T10:31:11.649Z,75.26
2017-09-15T10:31:19.794Z,75.22
2017-09-15T10:31:33.662Z,75.34
2017-09-15T10:31:41.909Z,75.91
2017-09-15T10:32:06.354Z,75.33
2017-09-15T10:32:13.597Z,75.35
2017-09-15T10:32:21.767Z,75.62
2017-09-15T10:32:36.626Z,75.51
2017-09-15T10:32:45.457Z,75.52
2017-09-15T10:32:53.870Z,75.66
2017-09-15T10:33:10.515Z,76.22
2017-09-15T10:33:24.961Z,76.38
2017-09-15T10:33:33.430Z,76.39
2017-09-15T10:33:41.581Z,76.29
2017-09-15T10:33:55.429Z,76.20
2017-09-15T10:34:03.671Z,76.12
2017-09-15T10:34:15.534Z,76.14
2017-09-15T10:34:26.245Z,76.19
2017-09-15T10:34:40.322Z,76.12
2017-09-15T10:34:56.391Z,76.29
2017-09-15T10:35:05.050Z,76.33
2017-09-15T10:35:13.389Z,76.28
2017-09-15T10:35:47.534Z,76.35
2017-09-15T10:35:56.062Z,76.27
2017-09-15T10:36:11.003Z,76.23
2017-09-15T10:36:41.109Z,76.14
2017-09-15T10:37:13.459Z,76.21
2017-09-15T10:37:28.144Z,76.31
2017-09-15T10:37:36.911Z,76.42
2017-09-15T10:37:53.014Z,76.34
2017-09-15T10:38:06.866Z,76.44
2017-09-15T10:38:54.862Z,76.14
2017-09-15T10:39:20.290Z,76.21
2017-09-15T10:39:36.410Z,76.21
2017-09-15T10:39:44.549Z,76.18
2017-09-15T10:40:13.486Z,76.39
2017-09-15T10:40:31.230Z,76.30
2017-09-15T10:40:45.201Z,76.15
2017-09-15T10:41:05.249Z,76.03
2017-09-15T10:41:21.014Z,76.01
2017-09-15T10:41:29.253Z,75.97
2017-09-15T10:41:37.398Z,76.05
2017-09-15T10:41:59.870Z,76.06
2017-09-15T10:42:12.298Z,75.67
2017-09-15T10:42:20.626Z,75.77
2017-09-15T10:42:31.769Z,75.58
2017-09-15T10:42:55.766Z,76.57
2017-09-15T10:43:07.600Z,76.64
2017-09-15T10:43:26.960Z,75.56
2017-09-15T10:43:36.098Z,75.80
2017-09-15T10:43:44.238Z,75.80
2017-09-15T10:43:58.761Z,75.82
2017-09-15T10:45:05.653Z,75.84
2017-09-15T10:45:20.506Z,75.52
2017-09-15T10:45:30.233Z,75.46
2017-09-15T10:46:31.175Z,75.65
2017-09-15T10:46:55.333Z,75.58
2017-09-15T10:47:15.590Z,75.79
2017-09-15T10:48:03.155Z,75.79
2017-09-15T10:49:10.820Z,75.78
2017-09-15T10:49:44.190Z,75.68
2017-09-15T10:50:01.274Z,75.51
2017-09-15T10:51:10.293Z,75.13
2017-09-15T10:52:17.136Z,75.26
2017-09-15T10:52:27.223Z,74.65
2017-09-15T10:52:35.369Z,74.20
2017-09-15T10:52:48.306Z,74.50
2017-09-15T10:53:03.589Z,74.46
2017-09-15T10:54:13.734Z,74.23
2017-09-15T10:54:34.273Z,74.38
2017-09-15T10:55:09.678Z,74.04
2017-09-15T10:55:18.845Z,73.91
2017-09-15T10:55:53.010Z,73.60
2017-09-15T10:56:01.154Z,73.86
2017-09-15T10:56:09.282Z,73.87
2017-09-15T10:56:17.430Z,73.98
2017-09-15T10:56:31.957Z,73.86
2017-09-15T10:57:37.899Z,74.02
2017-09-15T10:57:57.029Z,73.40
2017-09-15T10:58:09.985Z,74.22
2017-09-15T10:58:26.135Z,74.39
2017-09-15T10:58:39.055Z,73.79
2017-09-15T10:59:14.387Z,74.40
2017-09-15T11:00:22.494Z,74.49
2017-09-15T11:01:11.326Z,73.55
2017-09-15T11:01:19.469Z,73.71
2017-09-15T11:01:27.618Z,73.65
2017-09-15T11:02:28.550Z,73.26
2017-09-15T11:02:36.669Z,73.59
2017-09-15T11:02:48.029Z,73.37
2017-09-15T11:02:56.141Z,73.50
2017-09-15T11:03:08.534Z,73.33
2017-09-15T11:03:16.689Z,73.35
2017-09-15T11:03:24.789Z,73.57
2017-09-15T11:03:32.937Z,73.50
2017-09-15T11:03:41.065Z,73.51
2017-09-15T11:03:49.210Z,73.56
2017-09-15T11:04:06.934Z,73.70
2017-09-15T11:04:24.888Z,74.11
2017-09-15T11:05:00.029Z,74.29
2017-09-15T11:05:08.160Z,74.37
2017-09-15T11:05:24.626Z,74.71
2017-09-15T11:05:32.016Z,74.61
2017-09-15T11:05:43.550Z,74.88
2017-09-15T11:06:24.726Z,74.32
2017-09-15T11:07:21.415Z,74.06
2017-09-15T11:07:38.539Z,74.37
2017-09-15T11:07:48.417Z,74.35
2017-09-15T11:07:56.557Z,74.64
2017-09-15T11:08:09.410Z,74.67
2017-09-15T11:08:21.940Z,74.78
2017-09-15T11:08:47.639Z,74.32
2017-09-15T11:09:05.329Z,74.46
2017-09-15T11:09:13.470Z,74.31
2017-09-15T11:09:21.619Z,74.51
2017-09-15T11:09:29.756Z,74.47
2017-09-15T11:09:37.891Z,74.45
2017-09-15T11:09:47.630Z,74.30
2017-09-15T11:10:06.960Z,74.19
2017-09-15T11:10:15.102Z,73.95
2017-09-15T11:10:28.478Z,74.30
2017-09-15T11:11:01.406Z,73.99
2017-09-15T11:11:12.546Z,73.92
2017-09-15T11:11:51.078Z,73.63
2017-09-15T11:12:00.834Z,73.79
2017-09-15T11:12:18.678Z,73.60
2017-09-15T11:12:41.846Z,73.65
2017-09-15T11:12:54.477Z,73.73
2017-09-15T11:13:02.622Z,74.04
2017-09-15T11:13:10.753Z,73.97
2017-09-15T11:13:18.903Z,73.58
2017-09-15T11:13:27.053Z,73.58
2017-09-15T11:13:35.189Z,73.50
2017-09-15T11:13:43.301Z,73.64
2017-09-15T11:13:51.749Z,73.68
2017-09-15T11:13:59.586Z,73.71
2017-09-15T11:14:58.925Z,73.44
2017-09-15T11:15:11.878Z,73.43
2017-09-15T11:15:26.422Z,73.22
2017-09-15T11:15:39.333Z,73.43
2017-09-15T11:15:47.490Z,73.20
2017-09-15T11:15:55.622Z,73.44
2017-09-15T11:16:03.825Z,73.16
2017-09-15T11:16:37.486Z,73.68
2017-09-15T11:16:57.151Z,73.70
2017-09-15T11:17:04.389Z,73.63
2017-09-15T11:17:26.921Z,73.83
2017-09-15T11:17:35.060Z,73.64
2017-09-15T11:17:46.402Z,73.58
2017-09-15T11:18:08.934Z,73.44
2017-09-15T11:18:23.794Z,73.64
2017-09-15T11:18:35.857Z,73.83
2017-09-15T11:18:43.966Z,73.40
2017-09-15T11:18:52.117Z,73.50
2017-09-15T11:19:00.260Z,73.57
2017-09-15T11:19:08.387Z,73.41
2017-09-15T11:19:18.145Z,73.82
2017-09-15T11:20:14.265Z,73.73
2017-09-15T11:21:21.733Z,73.76
2017-09-15T11:21:45.812Z,73.67
2017-09-15T11:21:55.543Z,73.69
2017-09-15T11:22:27.465Z,73.65
2017-09-15T11:22:45.213Z,73.42
2017-09-15T11:23:01.178Z,73.86
2017-09-15T11:24:08.541Z,73.85
2017-09-15T11:24:32.123Z,73.21
2017-09-15T11:24:46.665Z,73.06
2017-09-15T11:25:04.401Z,73.18
2017-09-15T11:25:22.143Z,72.89
2017-09-15T11:25:30.284Z,72.95
2017-09-15T11:25:55.938Z,73.28
2017-09-15T11:26:03.579Z,72.76
2017-09-15T11:26:22.918Z,72.75
2017-09-15T11:26:40.648Z,72.46
2017-09-15T11:26:53.601Z,72.88
2017-09-15T11:27:03.354Z,72.80
2017-09-15T11:27:17.874Z,72.71
2017-09-15T11:27:32.410Z,72.97
2017-09-15T11:27:46.954Z,73.00
2017-09-15T11:28:27.069Z,72.88
2017-09-15T11:28:35.414Z,73.03
2017-09-15T11:28:49.825Z,72.92
2017-09-15T11:29:18.762Z,72.63
2017-09-15T11:29:29.586Z,72.52
2017-09-15T11:29:37.718Z,72.72
2017-09-15T11:29:45.893Z,72.25
2017-09-15T11:29:53.985Z,72.83
2017-09-15T11:30:07.963Z,72.40
2017-09-15T11:30:25.710Z,72.59
2017-09-15T11:30:33.837Z,72.72
2017-09-15T11:30:45.179Z,72.75
2017-09-15T11:30:53.305Z,72.70
2017-09-15T11:31:01.441Z,72.66
2017-09-15T11:31:09.598Z,72.89
2017-09-15T11:32:16.465Z,72.78
2017-09-15T11:32:42.521Z,72.63
2017-09-15T11:32:50.860Z,72.44
2017-09-15T11:33:00.410Z,72.28
2017-09-15T11:33:08.525Z,71.96
2017-09-15T11:33:19.874Z,72.51
2017-09-15T11:33:28.009Z,72.21
2017-09-15T11:33:36.157Z,72.46
2017-09-15T11:33:45.892Z,72.58
2017-09-15T11:33:54.061Z,72.37
2017-09-15T11:34:02.169Z,72.47
2017-09-15T11:34:26.297Z,72.17
2017-09-15T11:34:56.281Z,72.50
2017-09-15T11:35:04.409Z,72.51
2017-09-15T11:35:14.145Z,72.59
2017-09-15T11:35:25.473Z,73.02
2017-09-15T11:35:40.050Z,72.93
2017-09-15T11:35:55.601Z,73.19
2017-09-15T11:36:03.713Z,73.20
2017-09-15T11:36:15.069Z,72.86
2017-09-15T11:36:27.990Z,73.05
2017-09-15T11:36:50.544Z,72.95
2017-09-15T11:36:58.685Z,73.16
2017-09-15T11:38:05.893Z,73.00
2017-09-15T11:38:44.417Z,72.36
2017-09-15T11:39:00.682Z,72.54
2017-09-15T11:39:08.353Z,72.21
2017-09-15T11:39:16.459Z,72.27
2017-09-15T11:39:24.403Z,72.06
2017-09-15T11:39:32.517Z,72.14
2017-09-15T11:39:47.406Z,72.05
2017-09-15T11:40:15.427Z,72.32
2017-09-15T11:40:31.558Z,72.83
2017-09-15T11:41:39.092Z,72.61
2017-09-15T11:41:50.135Z,72.33
2017-09-15T11:42:14.257Z,72.78
2017-09-15T11:43:03.986Z,72.74
2017-09-15T11:43:12.117Z,72.61
2017-09-15T11:43:45.789Z,72.68
2017-09-15T11:43:53.413Z,72.75
2017-09-15T11:44:01.581Z,72.70
2017-09-15T11:44:21.631Z,72.71
2017-09-15T11:44:38.061Z,72.37
2017-09-15T11:45:03.790Z,72.69
2017-09-15T11:45:12.114Z,72.56
2017-09-15T11:45:20.065Z,72.90
2017-09-15T11:45:28.205Z,72.68
2017-09-15T11:45:45.381Z,73.09
2017-09-15T11:45:53.517Z,72.83
2017-09-15T11:46:01.649Z,72.91
2017-09-15T11:46:22.785Z,73.18
2017-09-15T11:46:38.586Z,73.08
2017-09-15T11:46:46.757Z,73.19
2017-09-15T11:46:54.681Z,73.14
2017-09-15T11:47:02.818Z,73.23
2017-09-15T11:47:10.965Z,73.00
2017-09-15T11:47:19.123Z,73.01
2017-09-15T11:47:27.429Z,73.07
2017-09-15T11:47:35.373Z,73.38
2017-09-15T11:47:43.522Z,73.27
2017-09-15T11:47:51.645Z,73.32
2017-09-15T11:47:59.781Z,73.39
2017-09-15T11:48:07.920Z,73.68
2017-09-15T11:48:16.261Z,73.65
2017-09-15T11:48:46.602Z,73.76
2017-09-15T11:48:56.337Z,73.78
2017-09-15T11:49:18.205Z,73.84
2017-09-15T11:49:28.045Z,74.06
2017-09-15T11:49:37.777Z,74.19
2017-09-15T11:49:52.330Z,73.87
2017-09-15T11:50:10.071Z,74.35
2017-09-15T11:50:23.662Z,74.19
2017-09-15T11:50:32.286Z,74.22
2017-09-15T11:50:40.425Z,74.05
2017-09-15T11:50:48.766Z,74.13
2017-09-15T11:50:56.712Z,74.54
2017-09-15T11:51:04.953Z,74.37
2017-09-15T11:52:12.017Z,74.54
2017-09-15T11:52:26.587Z,74.68
2017-09-15T11:52:42.723Z,74.68
2017-09-15T11:52:57.265Z,74.59
2017-09-15T11:53:06.369Z,74.61
2017-09-15T11:53:13.566Z,75.22
2017-09-15T11:53:21.688Z,75.13
2017-09-15T11:53:29.801Z,74.74
2017-09-15T11:53:37.941Z,74.88
2017-09-15T11:54:00.491Z,75.00
2017-09-15T11:54:11.837Z,75.04
2017-09-15T11:54:19.975Z,75.18
2017-09-15T11:54:28.117Z,75.01
2017-09-15T11:54:42.565Z,75.36
2017-09-15T11:54:50.214Z,74.99
2017-09-15T11:54:58.346Z,74.88
2017-09-15T11:55:06.499Z,74.94
2017-09-15T11:55:16.218Z,75.07
2017-09-15T11:55:27.577Z,75.14
2017-09-15T11:55:41.510Z,75.01
2017-09-15T11:55:51.427Z,75.21
2017-09-15T11:56:04.882Z,75.01
2017-09-15T11:56:13.940Z,74.84
2017-09-15T11:56:31.129Z,74.78
2017-09-15T11:56:39.371Z,74.71
2017-09-15T11:56:49.106Z,74.75
2017-09-15T11:57:01.567Z,74.78
2017-09-15T11:57:09.597Z,74.83
2017-09-15T11:57:17.740Z,74.98
2017-09-15T11:57:25.891Z,75.05
2017-09-15T11:57:39.250Z,74.73
2017-09-15T11:57:46.383Z,74.97
2017-09-15T11:57:54.525Z,74.71
2017-09-15T11:58:02.670Z,75.08
2017-09-15T11:58:10.821Z,74.64
2017-09-15T11:58:18.948Z,75.05
2017-09-15T11:58:27.073Z,74.91
2017-09-15T11:58:35.211Z,74.94
2017-09-15T11:58:43.354Z,74.91
2017-09-15T11:58:51.491Z,74.92
2017-09-15T11:59:05.346Z,75.08
2017-09-15T11:59:16.986Z,74.90
2017-09-15T11:59:24.935Z,75.23
2017-09-15T11:59:33.252Z,75.11
2017-09-15T11:59:41.193Z,74.94
2017-09-15T11:59:49.341Z,75.18
2017-09-15T11:59:57.469Z,75.12
2017-09-15T12:00:15.201Z,75.29
2017-09-15T12:00:23.354Z,74.99
2017-09-15T12:00:31.501Z,75.25
2017-09-15T12:00:39.626Z,75.15
2017-09-15T12:00:49.377Z,75.11
2017-09-15T12:00:57.596Z,75.09
2017-09-15T12:01:05.629Z,75.01
2017-09-15T12:01:13.819Z,74.74
2017-09-15T12:01:26.868Z,75.21
2017-09-15T12:01:35.177Z,75.20
2017-09-15T12:02:42.681Z,75.01
2017-09-15T12:02:50.182Z,74.30
2017-09-15T12:03:04.850Z,74.29
2017-09-15T12:03:12.865Z,74.33
2017-09-15T12:03:24.265Z,74.18
2017-09-15T12:03:32.341Z,74.29
2017-09-15T12:03:40.567Z,74.44
2017-09-15T12:03:58.213Z,74.25
2017-09-15T12:04:17.995Z,74.38
2017-09-15T12:04:32.116Z,74.46
2017-09-15T12:04:41.988Z,74.26
2017-09-15T12:04:50.073Z,74.50
2017-09-15T12:04:58.102Z,74.34
2017-09-15T12:05:06.274Z,74.28
2017-09-15T12:05:14.370Z,74.35
2017-09-15T12:05:22.509Z,74.68
2017-09-15T12:05:30.664Z,74.58
2017-09-15T12:05:38.806Z,74.50
2017-09-15T12:05:46.996Z,74.68
2017-09-15T12:06:01.795Z,74.68
2017-09-15T12:06:09.033Z,74.85
2017-09-15T12:06:17.205Z,74.70
2017-09-15T12:06:25.356Z,75.06
2017-09-15T12:06:33.436Z,74.77
2017-09-15T12:06:41.594Z,74.74
2017-09-15T12:06:49.720Z,74.83
2017-09-15T12:06:57.857Z,75.05
2017-09-15T12:07:06.036Z,74.97
2017-09-15T12:07:14.121Z,74.92
2017-09-15T12:07:22.278Z,74.92
2017-09-15T12:07:30.445Z,74.77
2017-09-15T12:07:38.542Z,74.89
2017-09-15T12:07:46.681Z,74.86
2017-09-15T12:07:54.865Z,75.08
2017-09-15T12:08:07.786Z,74.95
2017-09-15T12:08:19.093Z,74.79
2017-09-15T12:08:32.059Z,75.03
2017-09-15T12:08:41.811Z,74.85
2017-09-15T12:09:20.317Z,74.75
2017-09-15T12:09:28.497Z,74.47
2017-09-15T12:09:36.586Z,74.51
2017-09-15T12:10:00.719Z,74.91
2017-09-15T12:10:08.887Z,74.64
2017-09-15T12:10:17.043Z,74.76
2017-09-15T12:10:25.330Z,74.58
2017-09-15T12:10:39.709Z,74.62
2017-09-15T12:10:47.813Z,74.73
2017-09-15T12:10:55.962Z,74.79
2017-09-15T12:11:04.114Z,74.77
2017-09-15T12:11:17.673Z,74.85
2017-09-15T12:11:59.921Z,74.46
2017-09-15T12:12:08.049Z,74.62
2017-09-15T12:12:16.242Z,74.60
2017-09-15T12:12:24.329Z,74.55
2017-09-15T12:12:37.594Z,74.32
2017-09-15T12:12:50.578Z,74.45
2017-09-15T12:12:58.838Z,74.61
2017-09-15T12:13:22.954Z,74.56
2017-09-15T12:13:37.483Z,74.40
2017-09-15T12:13:45.617Z,74.64
2017-09-15T12:14:06.609Z,74.79
2017-09-15T12:14:21.100Z,74.52
2017-09-15T12:14:50.034Z,74.41
2017-09-15T12:15:03.403Z,74.66
2017-09-15T12:15:12.160Z,74.34
2017-09-15T12:16:19.357Z,74.45
2017-09-15T12:16:32.309Z,74.22
2017-09-15T12:16:40.403Z,74.45
2017-09-15T12:16:51.778Z,74.42
2017-09-15T12:16:59.875Z,74.43
2017-09-15T12:17:08.036Z,74.21
2017-09-15T12:17:17.797Z,74.09
2017-09-15T12:17:35.489Z,74.32
2017-09-15T12:17:50.055Z,74.04
2017-09-15T12:18:28.561Z,73.77
2017-09-15T12:18:36.706Z,73.94
2017-09-15T12:18:48.038Z,73.79
2017-09-15T12:19:13.850Z,74.28
2017-09-15T12:19:21.350Z,74.11
2017-09-15T12:19:29.473Z,74.08
2017-09-15T12:19:42.427Z,74.03
2017-09-15T12:19:50.588Z,74.03
2017-09-15T12:19:58.696Z,74.07
2017-09-15T12:20:06.848Z,74.12
2017-09-15T12:20:20.465Z,74.05
2017-09-15T12:20:29.110Z,74.25
2017-09-15T12:20:40.409Z,74.22
2017-09-15T12:20:48.552Z,74.01
2017-09-15T12:20:56.702Z,74.23
2017-09-15T12:21:24.014Z,73.80
2017-09-15T12:21:33.761Z,73.75
2017-09-15T12:21:41.902Z,74.05
2017-09-15T12:21:51.630Z,73.87
2017-09-15T12:21:59.822Z,74.13
2017-09-15T12:22:07.953Z,74.12
2017-09-15T12:22:16.053Z,74.14
2017-09-15T12:22:24.178Z,73.97
2017-09-15T12:22:32.364Z,74.13
2017-09-15T12:22:43.674Z,74.13
2017-09-15T12:22:51.985Z,73.97
2017-09-15T12:23:04.729Z,74.10
2017-09-15T12:23:12.869Z,74.18
2017-09-15T12:23:21.001Z,73.99
2017-09-15T12:23:29.201Z,73.90
2017-09-15T12:23:37.339Z,73.93
2017-09-15T12:23:59.819Z,74.08
2017-09-15T12:24:11.162Z,73.94
2017-09-15T12:24:38.422Z,73.92
2017-09-15T12:24:49.265Z,73.88
2017-09-15T12:25:00.638Z,73.75
2017-09-15T12:25:11.942Z,74.19
2017-09-15T12:25:23.275Z,73.84
2017-09-15T12:25:33.017Z,74.12
2017-09-15T12:25:45.957Z,74.02
2017-09-15T12:25:54.097Z,73.77
2017-09-15T12:26:21.434Z,73.83
2017-09-15T12:26:31.157Z,73.75
2017-09-15T12:26:44.101Z,73.95
2017-09-15T12:26:52.237Z,73.68
2017-09-15T12:27:00.405Z,73.70
2017-09-15T12:27:13.245Z,73.89
2017-09-15T12:28:12.086Z,73.83
2017-09-15T12:28:20.213Z,73.53
2017-09-15T12:28:28.346Z,73.97
2017-09-15T12:28:42.882Z,73.53
2017-09-15T12:29:15.474Z,73.79
2017-09-15T12:30:07.393Z,73.54
2017-09-15T12:30:15.521Z,73.69
2017-09-15T12:30:23.677Z,74.21
2017-09-15T12:30:31.804Z,73.55
2017-09-15T12:30:39.946Z,73.48
2017-09-15T12:30:48.277Z,73.90
2017-09-15T12:31:04.941Z,73.85
2017-09-15T12:31:13.377Z,73.73
2017-09-15T12:31:21.753Z,73.77
2017-09-15T12:31:29.656Z,73.72
2017-09-15T12:31:37.819Z,73.85
2017-09-15T12:31:45.941Z,73.72
2017-09-15T12:31:54.102Z,73.55
2017-09-15T12:32:02.213Z,74.17
2017-09-15T12:32:10.343Z,73.83
2017-09-15T12:32:18.485Z,73.94
2017-09-15T12:32:26.615Z,73.96
2017-09-15T12:32:34.758Z,73.83
2017-09-15T12:32:43.077Z,74.15
2017-09-15T12:32:54.268Z,73.90
2017-09-15T12:33:01.809Z,73.40
2017-09-15T12:33:09.942Z,73.75
2017-09-15T12:33:50.069Z,73.82
2017-09-15T12:34:27.369Z,73.63
2017-09-15T12:34:34.591Z,73.60
2017-09-15T12:34:42.728Z,73.62
2017-09-15T12:34:50.845Z,73.44
2017-09-15T12:35:58.558Z,73.49
2017-09-15T12:36:23.294Z,73.03
2017-09-15T12:36:38.086Z,72.93
2017-09-15T12:36:46.952Z,73.03
2017-09-15T12:37:01.479Z,72.95
2017-09-15T12:37:12.805Z,72.71
2017-09-15T12:37:22.533Z,73.27
2017-09-15T12:37:30.669Z,72.30
2017-09-15T12:37:38.809Z,72.69
2017-09-15T12:37:54.951Z,73.20
2017-09-15T12:38:03.097Z,72.90
2017-09-15T12:38:11.229Z,73.56
2017-09-15T12:38:30.909Z,73.75
2017-09-15T12:38:41.341Z,72.85
2017-09-15T12:38:49.465Z,72.86
2017-09-15T12:39:07.521Z,73.77
2017-09-15T12:39:14.757Z,73.82
2017-09-15T12:39:22.906Z,73.62
2017-09-15T12:39:50.277Z,73.46
2017-09-15T12:40:17.741Z,74.81
2017-09-15T12:40:33.881Z,73.65
2017-09-15T12:40:43.442Z,74.50
2017-09-15T12:40:52.200Z,74.59
2017-09-15T12:41:01.122Z,73.59
2017-09-15T12:42:13.873Z,74.09
2017-09-15T12:42:34.939Z,74.24
2017-09-15T12:42:57.845Z,74.48
2017-09-15T12:43:06.202Z,74.69
2017-09-15T12:43:23.128Z,74.87
2017-09-15T12:44:11.986Z,74.98
2017-09-15T12:44:28.606Z,74.31
2017-09-15T12:44:45.198Z,75.19
2017-09-15T12:45:02.243Z,75.57
2017-09-15T12:45:22.995Z,75.89
2017-09-15T12:45:37.591Z,76.08
2017-09-15T12:45:45.501Z,76.61
2017-09-15T12:46:02.374Z,76.26
2017-09-15T12:46:42.708Z,76.85
2017-09-15T12:47:00.058Z,76.62
2017-09-15T12:47:07.293Z,75.43
2017-09-15T12:47:22.162Z,75.64
2017-09-15T12:47:29.598Z,76.02
2017-09-15T12:47:37.526Z,75.50
2017-09-15T12:47:45.684Z,75.96
2017-09-15T12:47:53.997Z,75.74
2017-09-15T12:48:02.313Z,76.02
2017-09-15T12:48:20.092Z,75.87
2017-09-15T12:48:37.265Z,76.57
2017-09-15T12:48:49.937Z,76.16
2017-09-15T12:49:04.509Z,76.84
2017-09-15T12:49:18.945Z,76.02
2017-09-15T12:49:26.309Z,76.19
2017-09-15T12:49:41.346Z,76.16
2017-09-15T12:49:55.443Z,76.23
2017-09-15T12:50:10.898Z,76.15
2017-09-15T12:50:26.402Z,76.35
2017-09-15T12:50:37.952Z,76.33
2017-09-15T12:50:58.862Z,76.29
2017-09-15T12:51:06.859Z,76.87
2017-09-15T12:51:24.072Z,77.46
2017-09-15T12:51:32.133Z,76.76
2017-09-15T12:51:47.997Z,77.42
2017-09-15T12:51:56.009Z,77.65
2017-09-15T12:52:12.044Z,76.80
2017-09-15T12:52:29.498Z,76.99
2017-09-15T12:52:49.710Z,76.80
2017-09-15T12:53:20.285Z,77.83
2017-09-15T12:53:38.091Z,78.31
2017-09-15T12:53:47.941Z,76.69
2017-09-15T12:54:01.978Z,77.49
2017-09-15T12:54:17.026Z,76.86
2017-09-15T12:54:25.278Z,78.37
2017-09-15T12:54:40.391Z,77.62
2017-09-15T12:54:57.609Z,77.62
2017-09-15T12:55:13.603Z,77.99
2017-09-15T12:55:30.570Z,77.82
2017-09-15T12:55:51.777Z,78.35
2017-09-15T12:55:59.153Z,78.54
2017-09-15T12:56:18.818Z,78.50
2017-09-15T12:56:34.702Z,78.39
2017-09-15T12:56:43.359Z,78.72
2017-09-15T12:56:58.394Z,78.87
2017-09-15T12:57:06.981Z,78.84
2017-09-15T12:57:21.226Z,78.55
2017-09-15T12:57:37.732Z,79.15
2017-09-15T12:57:47.035Z,78.59
2017-09-15T12:57:56.010Z,78.64
2017-09-15T12:58:08.537Z,79.02
2017-09-15T12:58:16.630Z,78.84
2017-09-15T12:58:31.017Z,78.89
2017-09-15T12:58:45.594Z,79.73
2017-09-15T12:59:01.388Z,78.29